Time;durP1;ratioP1;P1;durP2;ratioP2;P2;SDS_P1;SDS_P2;PMS_P1;PMS_P2;Temp;Humidity;BMP_temperature;BMP_pressure;BME280_temperature;BME280_humidity;BME280_pressure;Samples;Min_cycle;Max_cycle;Signal;HPM_P1;HPM_P2
2022/05/15 00:00:46;;;;;;;24.42;7.65;;;10.30;99.90;;;;;;5013146;28;20053;-76
2022/05/15 00:03:13;;;;;;;24.98;8.15;;;10.30;99.90;;;;;;5005852;28;20049;-75
2022/05/15 00:05:41;;;;;;;21.48;8.30;;;10.30;99.90;;;;;;4994397;28;20415;-76
2022/05/15 00:08:09;;;;;;;22.10;7.68;;;10.30;99.90;;;;;;5006175;28;20065;-76
2022/05/15 00:10:36;;;;;;;28.70;9.57;;;10.30;99.90;;;;;;5023931;28;20569;-76
2022/05/15 00:13:02;;;;;;;27.02;8.50;;;10.30;99.90;;;;;;5023378;28;20539;-75
2022/05/15 00:15:31;;;;;;;23.10;8.43;;;10.20;99.90;;;;;;4991001;28;20046;-76
2022/05/15 00:17:59;;;;;;;23.90;7.53;;;10.10;99.90;;;;;;5000332;28;20053;-76
2022/05/15 00:20:25;;;;;;;23.38;7.10;;;10.10;99.90;;;;;;4999728;28;20045;-76
2022/05/15 00:22:51;;;;;;;24.45;9.02;;;10.10;99.90;;;;;;5013021;28;20416;-76
2022/05/15 00:25:17;;;;;;;29.70;9.80;;;10.00;99.90;;;;;;4989226;28;20511;-76
2022/05/15 00:27:47;;;;;;;25.60;8.25;;;9.90;99.90;;;;;;5013282;28;20038;-76
2022/05/15 00:30:15;;;;;;;23.38;7.50;;;9.80;99.90;;;;;;5000626;28;20072;-75
2022/05/15 00:32:41;;;;;;;30.10;8.82;;;9.80;99.90;;;;;;5018137;28;20052;-75
2022/05/15 00:35:08;;;;;;;23.60;7.90;;;9.80;99.90;;;;;;5002791;28;20042;-76
2022/05/15 00:37:34;;;;;;;23.00;7.78;;;9.80;99.90;;;;;;4993556;28;20057;-76
2022/05/15 00:39:59;;;;;;;23.95;7.50;;;9.80;99.90;;;;;;5017454;28;20045;-77
2022/05/15 00:42:26;;;;;;;21.70;7.30;;;9.90;99.90;;;;;;5025559;28;20154;-77
2022/05/15 00:44:52;;;;;;;21.23;7.38;;;9.90;99.90;;;;;;5018823;28;20551;-77
2022/05/15 00:47:18;;;;;;;25.27;7.90;;;9.90;99.90;;;;;;4999916;28;20048;-77
2022/05/15 00:49:45;;;;;;;22.13;7.35;;;9.90;99.90;;;;;;5008239;28;20085;-76
2022/05/15 00:52:15;;;;;;;19.52;7.80;;;9.90;99.90;;;;;;5006552;28;20400;-77
2022/05/15 00:54:41;;;;;;;21.77;7.05;;;9.90;99.90;;;;;;5022836;28;20720;-77
2022/05/15 00:57:23;;;;;;;24.65;7.35;;;9.90;99.90;;;;;;5020777;28;20057;-77
2022/05/15 01:00:09;;;;;;;20.65;7.55;;;9.80;99.90;;;;;;5018739;28;20471;-76
2022/05/15 01:02:46;;;;;;;22.33;7.47;;;9.70;99.90;;;;;;5022447;28;20042;-77
2022/05/15 01:05:13;;;;;;;21.83;8.02;;;9.70;99.90;;;;;;5020836;28;20045;-77
2022/05/15 01:07:39;;;;;;;24.75;8.88;;;9.70;99.90;;;;;;5006347;28;20053;-76
2022/05/15 01:10:06;;;;;;;21.52;8.05;;;9.60;99.90;;;;;;5006547;28;20037;-77
2022/05/15 01:12:33;;;;;;;24.65;8.02;;;9.60;99.90;;;;;;5023077;28;20080;-77
2022/05/15 01:15:00;;;;;;;24.02;7.63;;;9.60;99.90;;;;;;5005905;28;20041;-77
2022/05/15 01:17:26;;;;;;;24.67;9.02;;;9.60;99.90;;;;;;5021180;28;20045;-76
2022/05/15 01:20:01;;;;;;;25.90;7.88;;;9.70;99.90;;;;;;5005885;28;20049;-77
2022/05/15 01:22:26;;;;;;;26.75;8.35;;;9.70;99.90;;;;;;5009409;28;20045;-76
2022/05/15 01:24:52;;;;;;;29.05;9.23;;;9.70;99.90;;;;;;5026582;28;20076;-76
2022/05/15 01:27:18;;;;;;;24.38;7.93;;;9.70;99.90;;;;;;5009669;28;20135;-76
2022/05/15 01:29:47;;;;;;;23.13;8.15;;;9.70;99.90;;;;;;5009968;28;20488;-76
2022/05/15 01:32:13;;;;;;;25.60;8.13;;;9.70;99.90;;;;;;5026887;28;20073;-76
2022/05/15 01:34:40;;;;;;;26.90;8.02;;;9.70;99.90;;;;;;5026155;28;20136;-74
2022/05/15 01:37:07;;;;;;;19.63;6.93;;;9.70;99.90;;;;;;5023740;28;20037;-75
2022/05/15 01:39:34;;;;;;;22.00;8.10;;;9.60;99.90;;;;;;5024967;28;20080;-75
2022/05/15 01:42:01;;;;;;;29.80;8.85;;;9.60;99.90;;;;;;5010347;28;20060;-75
2022/05/15 01:44:27;;;;;;;21.30;8.50;;;9.60;99.90;;;;;;4992545;28;20120;-75
2022/05/15 01:46:53;;;;;;;26.35;8.85;;;9.50;99.90;;;;;;5027071;28;20136;-75
2022/05/15 01:49:19;;;;;;;29.80;10.05;;;9.40;99.90;;;;;;5027268;28;20045;-75
2022/05/15 01:51:45;;;;;;;29.05;9.65;;;9.30;99.90;;;;;;5024410;28;20057;-75
2022/05/15 01:54:11;;;;;;;21.42;7.75;;;9.30;99.90;;;;;;5026294;28;20125;-75
2022/05/15 01:56:37;;;;;;;23.17;8.43;;;9.30;99.90;;;;;;5010180;28;20131;-75
2022/05/15 01:59:04;;;;;;;28.42;9.98;;;9.30;99.90;;;;;;5010352;28;20049;-75
2022/05/15 02:01:30;;;;;;;24.13;7.93;;;9.20;99.90;;;;;;5007038;28;20049;-75
2022/05/15 02:03:55;;;;;;;23.13;7.88;;;9.20;99.90;;;;;;5011183;28;20041;-75
2022/05/15 02:06:21;;;;;;;27.35;8.35;;;9.30;99.90;;;;;;5015531;28;20923;-75
2022/05/15 02:08:48;;;;;;;20.52;7.97;;;9.30;99.90;;;;;;5023931;28;20574;-75
2022/05/15 02:11:14;;;;;;;23.52;7.53;;;9.30;99.90;;;;;;4994279;28;20049;-75
2022/05/15 02:13:41;;;;;;;23.25;8.50;;;9.30;99.90;;;;;;5025634;28;20492;-75
2022/05/15 02:16:07;;;;;;;31.77;9.63;;;9.30;99.90;;;;;;5024882;28;20046;-75
2022/05/15 02:18:33;;;;;;;22.23;8.48;;;9.40;99.90;;;;;;5026417;28;20049;-75
2022/05/15 02:20:59;;;;;;;25.92;9.77;;;9.30;99.90;;;;;;5008230;28;20073;-75
2022/05/15 02:23:26;;;;;;;22.42;7.75;;;9.40;99.90;;;;;;5031842;28;20084;-75
2022/05/15 02:25:53;;;;;;;19.02;8.43;;;9.20;99.90;;;;;;5026157;28;20053;-75
2022/05/15 02:28:19;;;;;;;23.10;8.30;;;9.20;99.90;;;;;;5026452;28;20046;-75
2022/05/15 02:30:47;;;;;;;22.33;8.38;;;9.20;99.90;;;;;;5026211;28;20037;-75
2022/05/15 02:33:12;;;;;;;23.52;8.32;;;9.20;99.90;;;;;;5025217;28;20049;-75
2022/05/15 02:35:38;;;;;;;22.73;7.70;;;9.10;99.90;;;;;;5009926;28;20049;-75
2022/05/15 02:38:05;;;;;;;25.25;8.80;;;9.20;99.90;;;;;;5009605;28;20048;-75
2022/05/15 02:40:31;;;;;;;25.23;9.15;;;9.20;99.90;;;;;;5026119;28;20053;-75
2022/05/15 02:42:57;;;;;;;24.70;9.00;;;9.10;99.90;;;;;;5010253;28;20053;-75
2022/05/15 02:45:24;;;;;;;24.40;9.10;;;9.10;99.90;;;;;;5026426;28;20550;-75
2022/05/15 02:47:50;;;;;;;21.42;8.35;;;9.10;99.90;;;;;;5026287;28;20053;-75
2022/05/15 02:53:01;;;;;;;23.35;8.27;;;9.10;99.90;;;;;;5026033;28;20115;-75
2022/05/15 02:55:28;;;;;;;20.92;8.25;;;9.10;99.90;;;;;;5009209;28;20661;-75
2022/05/15 02:57:54;;;;;;;26.77;9.10;;;9.00;99.90;;;;;;4992928;28;20084;-75
2022/05/15 03:00:23;;;;;;;24.90;8.50;;;9.00;99.90;;;;;;5005589;28;20488;-74
2022/05/15 03:02:49;;;;;;;22.35;8.93;;;9.00;99.90;;;;;;5022519;28;20151;-75
2022/05/15 03:05:17;;;;;;;24.38;8.38;;;8.90;99.90;;;;;;5005798;28;20085;-75
2022/05/15 03:07:43;;;;;;;27.60;10.02;;;8.90;99.90;;;;;;5018591;28;20073;-75
2022/05/15 03:10:11;;;;;;;21.20;8.75;;;8.90;99.90;;;;;;4976970;28;20156;-75
2022/05/15 03:12:37;;;;;;;27.35;9.90;;;8.90;99.90;;;;;;5009097;28;20052;-76
2022/05/15 03:15:05;;;;;;;26.92;10.15;;;8.90;99.90;;;;;;5025981;28;20041;-75
2022/05/15 03:17:32;;;;;;;26.73;9.15;;;8.90;99.90;;;;;;5009217;28;20142;-76
2022/05/15 03:19:58;;;;;;;23.00;9.27;;;8.90;99.90;;;;;;5009421;28;20049;-76
2022/05/15 03:22:23;;;;;;;22.27;9.27;;;8.90;99.90;;;;;;5011995;28;20042;-75
2022/05/15 03:24:49;;;;;;;24.15;10.30;;;8.80;99.90;;;;;;5010466;28;20118;-76
2022/05/15 03:27:16;;;;;;;21.42;9.18;;;8.80;99.90;;;;;;5005221;28;20081;-75
2022/05/15 03:29:42;;;;;;;24.35;9.65;;;8.80;99.90;;;;;;5006363;28;20128;-75
2022/05/15 03:32:08;;;;;;;24.52;9.60;;;8.80;99.90;;;;;;5006312;28;20077;-74
2022/05/15 03:34:34;;;;;;;26.35;10.75;;;8.80;99.90;;;;;;5017948;28;20116;-74
2022/05/15 03:37:00;;;;;;;26.55;9.35;;;8.80;99.90;;;;;;5007917;28;20064;-74
2022/05/15 03:39:26;;;;;;;30.83;10.18;;;8.80;99.90;;;;;;4992958;28;20076;-75
2022/05/15 03:41:52;;;;;;;24.95;9.52;;;8.70;99.90;;;;;;5008969;28;20037;-75
2022/05/15 03:44:18;;;;;;;25.15;10.27;;;8.80;99.90;;;;;;5008344;28;20049;-74
2022/05/15 03:46:44;;;;;;;24.55;9.52;;;8.80;99.90;;;;;;5009042;28;20057;-75
2022/05/15 03:49:14;;;;;;;25.90;9.80;;;8.70;99.90;;;;;;5009044;28;20049;-75
2022/05/15 03:51:41;;;;;;;29.33;9.98;;;8.80;99.90;;;;;;5008960;28;20503;-75
2022/05/15 03:54:09;;;;;;;26.45;10.40;;;8.80;99.90;;;;;;5008734;28;20574;-74
2022/05/15 03:56:50;;;;;;;20.88;9.77;;;8.80;99.90;;;;;;5008775;28;20046;-74
2022/05/15 03:59:26;;;;;;;22.00;9.27;;;8.80;99.90;;;;;;5024518;28;20080;-73
2022/05/15 04:01:53;;;;;;;26.27;10.50;;;8.80;99.90;;;;;;4998782;28;20535;-73
2022/05/15 04:04:19;;;;;;;22.58;10.18;;;8.80;99.90;;;;;;4988367;28;20045;-73
2022/05/15 04:06:46;;;;;;;23.52;9.50;;;8.80;99.90;;;;;;5021755;28;20623;-73
2022/05/15 04:09:13;;;;;;;28.13;10.13;;;8.80;99.90;;;;;;5013995;28;20507;-74
2022/05/15 04:11:39;;;;;;;24.08;10.15;;;8.80;99.90;;;;;;5017790;28;20069;-73
2022/05/15 04:14:06;;;;;;;27.63;10.35;;;8.80;99.90;;;;;;5008444;28;20049;-73
2022/05/15 04:16:32;;;;;;;28.35;11.05;;;8.80;99.90;;;;;;4991642;28;20140;-73
2022/05/15 04:18:58;;;;;;;23.90;9.82;;;8.80;99.90;;;;;;5008254;28;20166;-74
2022/05/15 04:21:24;;;;;;;29.88;11.02;;;8.80;99.90;;;;;;5024560;28;20073;-73
2022/05/15 04:23:50;;;;;;;27.23;10.73;;;8.80;99.90;;;;;;5008416;28;20057;-73
2022/05/15 04:26:16;;;;;;;26.20;10.43;;;8.80;99.90;;;;;;5024814;28;20135;-73
2022/05/15 04:28:42;;;;;;;28.23;10.57;;;8.80;99.90;;;;;;4991632;28;20141;-73
2022/05/15 04:31:08;;;;;;;22.67;9.75;;;8.80;99.90;;;;;;5024869;28;20132;-73
2022/05/15 04:33:34;;;;;;;26.00;10.07;;;8.80;99.90;;;;;;5024457;28;20049;-74
2022/05/15 04:36:00;;;;;;;26.98;10.57;;;8.90;99.90;;;;;;5016275;28;20061;-74
2022/05/15 04:38:27;;;;;;;24.30;10.00;;;8.90;99.90;;;;;;5004423;28;20049;-74
2022/05/15 04:40:53;;;;;;;25.17;10.43;;;8.90;99.90;;;;;;5021183;28;20089;-74
2022/05/15 04:43:20;;;;;;;23.77;9.25;;;9.00;99.90;;;;;;4988365;28;20034;-74
2022/05/15 04:45:46;;;;;;;31.08;10.93;;;9.00;99.90;;;;;;5004174;28;20042;-74
2022/05/15 04:48:12;;;;;;;26.90;10.07;;;9.00;99.90;;;;;;4988410;28;20049;-74
2022/05/15 04:50:38;;;;;;;28.83;10.15;;;9.20;99.90;;;;;;5003951;28;20053;-74
2022/05/15 04:53:07;;;;;;;24.58;9.57;;;9.30;99.90;;;;;;5035464;28;20061;-74
2022/05/15 04:55:33;;;;;;;27.92;10.05;;;9.40;99.90;;;;;;5009369;28;20041;-74
2022/05/15 04:57:59;;;;;;;22.52;10.18;;;9.40;99.90;;;;;;5028853;28;20056;-74
2022/05/15 05:00:25;;;;;;;25.10;9.85;;;9.60;99.90;;;;;;4991993;28;20037;-74
2022/05/15 05:02:51;;;;;;;24.33;10.00;;;9.60;99.90;;;;;;4992613;28;20403;-74
2022/05/15 05:05:17;;;;;;;22.60;9.15;;;9.70;99.90;;;;;;5008271;28;20056;-74
2022/05/15 05:07:44;;;;;;;25.38;9.30;;;9.80;99.90;;;;;;5000734;28;20057;-74
2022/05/15 05:10:12;;;;;;;25.80;9.77;;;9.80;99.90;;;;;;4994825;28;20054;-74
2022/05/15 05:12:37;;;;;;;23.48;9.27;;;9.90;99.90;;;;;;5011489;28;20045;-74
2022/05/15 05:15:05;;;;;;;26.42;9.13;;;9.90;99.90;;;;;;5026715;28;20577;-74
2022/05/15 05:17:31;;;;;;;20.75;9.23;;;10.00;99.90;;;;;;5026024;28;20045;-74
2022/05/15 05:19:57;;;;;;;27.73;8.90;;;10.10;99.90;;;;;;5009009;28;20057;-74
2022/05/15 05:22:23;;;;;;;27.27;9.48;;;10.20;99.90;;;;;;4992876;28;20041;-74
2022/05/15 05:24:48;;;;;;;24.27;8.65;;;10.20;99.90;;;;;;4992985;28;20045;-74
2022/05/15 05:27:14;;;;;;;23.70;9.13;;;10.40;99.90;;;;;;5009406;28;20041;-74
2022/05/15 05:29:41;;;;;;;21.55;9.60;;;10.40;99.90;;;;;;5009460;28;20100;-74
2022/05/15 05:32:07;;;;;;;22.00;7.95;;;10.50;99.90;;;;;;4993562;28;20116;-74
2022/05/15 05:34:33;;;;;;;22.50;8.25;;;10.50;99.90;;;;;;5009733;28;20049;-74
2022/05/15 05:36:59;;;;;;;23.85;8.88;;;10.60;99.90;;;;;;5024006;28;20048;-75
2022/05/15 05:39:25;;;;;;;21.88;8.52;;;10.70;99.90;;;;;;4993404;28;20044;-74
2022/05/15 05:41:50;;;;;;;21.05;7.88;;;10.80;99.90;;;;;;5009654;28;20645;-74
2022/05/15 05:44:16;;;;;;;24.13;7.47;;;10.90;99.90;;;;;;5025985;28;20049;-74
2022/05/15 05:46:42;;;;;;;22.17;7.38;;;11.00;99.90;;;;;;5025775;28;20050;-74
2022/05/15 05:49:08;;;;;;;20.60;7.88;;;11.10;99.90;;;;;;5009176;28;20505;-74
2022/05/15 05:51:33;;;;;;;20.80;7.38;;;11.20;99.90;;;;;;5009199;28;20167;-74
2022/05/15 05:53:59;;;;;;;16.60;7.18;;;11.30;99.90;;;;;;5025502;28;20045;-74
2022/05/15 05:56:25;;;;;;;19.23;6.80;;;11.40;99.90;;;;;;5009395;28;20045;-74
2022/05/15 05:58:51;;;;;;;18.15;6.90;;;11.50;99.90;;;;;;4992753;28;20045;-75
2022/05/15 06:01:17;;;;;;;23.15;7.65;;;11.60;99.90;;;;;;5006138;28;20982;-74
2022/05/15 06:06:31;;;;;;;17.27;6.75;;;11.80;99.90;;;;;;4971270;28;20144;-74
2022/05/15 06:08:57;;;;;;;22.33;7.40;;;11.80;99.90;;;;;;4971019;28;20053;-74
2022/05/15 06:11:22;;;;;;;20.63;7.00;;;12.00;99.90;;;;;;5009084;28;20183;-74
2022/05/15 06:13:48;;;;;;;19.80;6.85;;;12.10;99.90;;;;;;4992133;28;20104;-74
2022/05/15 06:16:14;;;;;;;16.55;6.35;;;12.20;99.90;;;;;;4993370;28;20040;-74
2022/05/15 06:18:40;;;;;;;18.73;6.90;;;12.20;99.90;;;;;;5009462;28;20044;-74
2022/05/15 06:21:06;;;;;;;19.63;7.55;;;12.40;99.90;;;;;;5025805;28;20232;-73
2022/05/15 06:23:32;;;;;;;18.92;6.20;;;12.50;99.90;;;;;;5009099;28;20106;-73
2022/05/15 06:25:58;;;;;;;22.10;6.22;;;12.60;99.90;;;;;;4993339;28;20056;-74
2022/05/15 06:28:24;;;;;;;21.23;7.22;;;12.60;99.90;;;;;;5008984;28;20395;-74
2022/05/15 06:30:50;;;;;;;19.88;6.55;;;12.80;99.90;;;;;;5025449;28;20408;-74
2022/05/15 06:33:16;;;;;;;16.67;5.50;;;12.90;99.90;;;;;;5009516;28;20057;-74
2022/05/15 06:35:42;;;;;;;18.95;6.03;;;13.00;99.90;;;;;;5007820;28;20124;-74
2022/05/15 06:38:08;;;;;;;17.88;5.43;;;13.10;99.90;;;;;;4992284;28;20049;-74
2022/05/15 06:40:34;;;;;;;17.60;5.75;;;13.30;99.90;;;;;;5008685;28;20549;-74
2022/05/15 06:43:00;;;;;;;13.65;4.70;;;13.40;99.90;;;;;;5008315;28;20076;-74
2022/05/15 06:45:27;;;;;;;17.27;5.32;;;13.50;99.90;;;;;;4992501;28;20136;-74
2022/05/15 06:47:53;;;;;;;14.52;4.90;;;13.70;99.90;;;;;;5024458;28;20053;-74
2022/05/15 06:50:19;;;;;;;17.42;5.60;;;13.80;99.90;;;;;;5008165;28;20414;-74
2022/05/15 06:52:45;;;;;;;14.88;4.60;;;13.90;99.90;;;;;;5007920;28;20053;-74
2022/05/15 06:55:17;;;;;;;16.05;4.88;;;14.10;99.90;;;;;;5008168;28;20038;-74
2022/05/15 06:57:44;;;;;;;18.48;5.30;;;14.20;99.90;;;;;;5024675;28;20107;-74
2022/05/15 07:00:14;;;;;;;14.27;5.72;;;14.30;99.90;;;;;;5022752;28;20104;-74
2022/05/15 07:02:41;;;;;;;14.65;5.07;;;14.40;99.90;;;;;;5007381;28;20140;-74
2022/05/15 07:05:09;;;;;;;20.33;4.65;;;14.50;99.90;;;;;;5023289;28;20081;-74
2022/05/15 07:07:36;;;;;;;13.70;4.78;;;14.70;99.90;;;;;;5024494;28;20056;-74
2022/05/15 07:10:02;;;;;;;16.08;4.88;;;14.80;99.90;;;;;;5022026;28;20045;-75
2022/05/15 07:12:28;;;;;;;17.83;4.63;;;14.80;99.90;;;;;;5007947;28;20048;-74
2022/05/15 07:14:53;;;;;;;14.68;4.88;;;14.90;99.90;;;;;;4991235;28;20061;-75
2022/05/15 07:17:19;;;;;;;13.55;5.00;;;15.00;99.90;;;;;;5006988;28;20042;-75
2022/05/15 07:19:45;;;;;;;19.40;5.10;;;15.10;99.90;;;;;;5007467;28;20124;-75
2022/05/15 07:22:11;;;;;;;15.00;4.63;;;15.20;99.90;;;;;;4991593;28;20114;-74
2022/05/15 07:24:40;;;;;;;16.80;5.43;;;15.40;99.90;;;;;;5007757;28;20084;-74
2022/05/15 07:27:08;;;;;;;12.32;4.80;;;15.50;99.90;;;;;;5021857;28;20518;-75
2022/05/15 07:29:36;;;;;;;16.88;5.07;;;15.60;99.90;;;;;;5002952;28;20049;-74
2022/05/15 07:32:03;;;;;;;18.95;5.28;;;15.80;99.90;;;;;;5019473;28;20058;-74
2022/05/15 07:34:29;;;;;;;16.50;5.80;;;15.90;99.90;;;;;;5016489;28;20069;-74
2022/05/15 07:36:55;;;;;;;14.35;4.90;;;16.00;99.90;;;;;;5012815;28;20061;-74
2022/05/15 07:39:21;;;;;;;17.52;4.80;;;16.10;99.90;;;;;;5020378;28;20042;-74
2022/05/15 07:41:51;;;;;;;15.32;5.13;;;16.20;99.90;;;;;;5003249;28;20168;-74
2022/05/15 07:44:17;;;;;;;14.38;5.50;;;16.30;99.90;;;;;;5007085;28;20191;-74
2022/05/15 07:46:46;;;;;;;14.85;4.90;;;16.40;99.90;;;;;;5007829;28;20056;-74
2022/05/15 07:49:13;;;;;;;17.15;4.75;;;16.50;99.90;;;;;;5006921;28;20042;-74
2022/05/15 07:51:44;;;;;;;15.93;4.57;;;16.60;99.90;;;;;;5004722;28;20124;-73
2022/05/15 07:54:12;;;;;;;13.68;4.72;;;16.70;99.90;;;;;;5007496;28;20644;-74
2022/05/15 07:56:38;;;;;;;14.73;4.03;;;16.90;99.90;;;;;;5006641;28;20111;-74
2022/05/15 07:59:03;;;;;;;15.50;5.00;;;17.00;99.90;;;;;;5023575;28;20480;-75
2022/05/15 08:01:29;;;;;;;15.57;4.47;;;17.20;99.90;;;;;;5005666;28;20046;-74
2022/05/15 08:03:55;;;;;;;18.35;4.93;;;17.30;99.90;;;;;;4991155;28;20391;-75
2022/05/15 08:09:07;;;;;;;16.92;5.03;;;17.60;99.90;;;;;;5021249;28;20061;-74
2022/05/15 08:11:35;;;;;;;18.75;4.47;;;17.70;99.90;;;;;;5006887;28;20124;-74
2022/05/15 08:14:01;;;;;;;18.05;4.70;;;17.80;99.90;;;;;;5002199;28;20042;-73
2022/05/15 08:16:28;;;;;;;18.27;4.63;;;17.80;99.90;;;;;;5006742;28;20047;-73
2022/05/15 08:24:24;;;;;;;17.38;4.45;;;18.00;99.30;;;;;;5005922;28;20046;-74
2022/05/15 08:26:50;;;;;;;14.98;4.60;;;18.00;99.00;;;;;;5007945;28;20060;-74
2022/05/15 08:29:18;;;;;;;13.35;4.13;;;18.10;99.40;;;;;;4997010;28;20053;-73
2022/05/15 08:31:44;;;;;;;13.90;4.75;;;18.20;98.30;;;;;;5020325;28;20045;-74
2022/05/15 08:34:10;;;;;;;14.82;4.43;;;18.30;97.90;;;;;;5001600;28;20037;-74
2022/05/15 08:36:41;;;;;;;16.98;4.80;;;18.40;97.50;;;;;;5003768;28;20605;-73
2022/05/15 08:39:09;;;;;;;18.92;5.07;;;18.40;95.90;;;;;;5029784;28;21016;-74
2022/05/15 08:42:05;;;;;;;14.27;4.53;;;18.40;96.30;;;;;;4997491;28;20055;-73
2022/05/15 08:44:43;;;;;;;14.30;4.15;;;18.40;96.50;;;;;;5016889;28;20281;-74
2022/05/15 08:47:34;;;;;;;18.30;4.70;;;18.50;95.90;;;;;;5017588;28;20033;-73
2022/05/15 08:50:09;;;;;;;17.27;4.68;;;18.70;96.60;;;;;;5016652;28;20527;-73
2022/05/15 08:52:49;;;;;;;13.90;4.68;;;18.80;96.00;;;;;;5012928;28;20102;-73
2022/05/15 08:55:24;;;;;;;12.85;4.40;;;18.90;94.90;;;;;;5019405;28;20403;-74
2022/05/15 08:58:00;;;;;;;17.73;4.35;;;19.00;93.70;;;;;;5005444;28;20505;-74
2022/05/15 09:00:35;;;;;;;16.85;4.53;;;19.20;94.70;;;;;;5019750;28;20768;-74
2022/05/15 09:03:24;;;;;;;14.35;3.65;;;19.30;94.10;;;;;;5004401;28;20707;-74
2022/05/15 09:06:36;;;;;;;19.85;4.60;;;19.40;95.30;;;;;;5005536;28;20049;-75
2022/05/15 09:09:20;;;;;;;18.67;4.57;;;19.60;93.90;;;;;;5002731;28;20049;-74
2022/05/15 09:11:55;;;;;;;13.30;3.85;;;19.90;92.10;;;;;;5022469;28;20081;-74
2022/05/15 09:14:30;;;;;;;16.48;4.38;;;19.90;87.30;;;;;;5022478;28;20442;-74
2022/05/15 09:17:24;;;;;;;14.95;3.75;;;19.90;87.40;;;;;;5017470;28;20428;-75
2022/05/15 09:19:56;;;;;;;15.48;3.95;;;19.90;87.30;;;;;;5034631;28;20520;-75
2022/05/15 09:22:27;;;;;;;15.45;4.38;;;19.80;86.30;;;;;;5018247;28;20114;-73
2022/05/15 09:24:53;;;;;;;15.38;4.20;;;19.90;86.90;;;;;;5021981;28;20049;-74
2022/05/15 09:27:22;;;;;;;14.75;4.68;;;19.90;85.80;;;;;;4989285;28;20041;-74
2022/05/15 09:30:11;;;;;;;17.13;5.45;;;20.00;85.50;;;;;;5022149;28;20518;-74
2022/05/15 09:32:44;;;;;;;13.20;3.43;;;20.20;84.20;;;;;;5009391;28;20160;-74
2022/05/15 09:35:30;;;;;;;16.45;3.95;;;20.30;83.40;;;;;;5021434;28;20045;-74
2022/05/15 09:43:51;;;;;;;14.60;4.53;;;20.70;78.10;;;;;;5026192;28;20507;-75
2022/05/15 09:46:20;;;;;;;15.10;3.95;;;20.60;74.50;;;;;;5024115;28;20053;-75
2022/05/15 09:48:51;;;;;;;12.98;4.75;;;20.70;80.00;;;;;;5008577;28;20045;-76
2022/05/15 09:51:44;;;;;;;15.02;3.72;;;20.80;78.30;;;;;;5025733;28;20083;-75
2022/05/15 09:54:28;;;;;;;15.85;3.90;;;21.00;79.30;;;;;;5024885;28;20116;-74
2022/05/15 09:57:18;;;;;;;14.73;4.38;;;21.10;76.80;;;;;;5009399;28;20056;-75
2022/05/15 09:59:52;;;;;;;14.82;4.20;;;21.30;76.70;;;;;;5022452;28;20111;-76
2022/05/15 10:02:21;;;;;;;15.13;3.70;;;21.40;76.40;;;;;;5006916;28;20045;-73
2022/05/15 10:04:50;;;;;;;13.97;4.37;;;21.50;76.30;;;;;;5001751;28;20046;-74
2022/05/15 10:07:34;;;;;;;14.25;4.20;;;21.60;76.40;;;;;;5021782;28;20529;-75
2022/05/15 10:10:23;;;;;;;13.35;3.97;;;21.80;68.50;;;;;;5038540;28;20049;-74
2022/05/15 10:13:05;;;;;;;12.95;3.20;;;21.90;72.80;;;;;;5009524;28;20052;-75
2022/05/15 10:15:46;;;;;;;14.68;3.90;;;21.90;74.50;;;;;;5023336;28;20044;-75
2022/05/15 10:18:27;;;;;;;15.98;3.60;;;22.00;72.40;;;;;;5020625;28;20640;-75
2022/05/15 10:20:54;;;;;;;14.27;3.90;;;22.20;72.60;;;;;;5016629;28;20057;-75
2022/05/15 10:23:26;;;;;;;11.63;3.63;;;22.30;69.90;;;;;;5019244;28;20057;-74
2022/05/15 10:26:07;;;;;;;19.58;3.80;;;22.30;64.60;;;;;;5023923;28;20037;-75
2022/05/15 10:28:42;;;;;;;15.95;4.90;;;22.20;63.80;;;;;;5008961;28;20060;-75
2022/05/15 10:31:27;;;;;;;15.05;4.60;;;22.00;63.30;;;;;;5025422;28;20506;-75
2022/05/15 10:33:56;;;;;;;15.55;4.35;;;22.00;64.50;;;;;;5022386;28;20109;-76
2022/05/15 10:36:28;;;;;;;12.10;3.20;;;22.10;65.40;;;;;;5024741;28;20037;-75
2022/05/15 10:38:54;;;;;;;12.48;4.13;;;22.30;62.70;;;;;;5016466;28;20065;-75
2022/05/15 10:41:36;;;;;;;13.18;4.43;;;22.40;61.90;;;;;;5007587;28;20046;-74
2022/05/15 10:44:18;;;;;;;13.85;4.10;;;22.50;60.90;;;;;;5004794;28;20114;-75
2022/05/15 10:47:16;;;;;;;14.07;3.58;;;22.40;61.30;;;;;;5035627;28;20174;-75
2022/05/15 10:50:05;;;;;;;15.50;4.20;;;22.40;60.90;;;;;;5022257;28;20049;-75
2022/05/15 10:52:47;;;;;;;14.93;4.15;;;22.50;61.20;;;;;;5024370;28;20053;-74
2022/05/15 10:58:20;;;;;;;13.10;3.70;;;22.60;59.00;;;;;;5019176;28;20124;-76
2022/05/15 11:00:53;;;;;;;14.20;3.67;;;22.60;59.80;;;;;;5016087;28;20130;-75
2022/05/15 11:03:37;;;;;;;16.50;4.50;;;22.70;58.80;;;;;;5020734;28;20057;-75
2022/05/15 11:06:27;;;;;;;16.90;3.80;;;22.70;56.60;;;;;;5025162;28;20049;-74
2022/05/15 11:09:28;;;;;;;14.02;3.38;;;22.70;57.50;;;;;;5006717;28;20057;-75
2022/05/15 11:12:28;;;;;;;15.00;4.15;;;22.80;59.40;;;;;;4964629;28;20056;-74
2022/05/15 11:15:22;;;;;;;10.20;3.55;;;23.00;57.40;;;;;;5024895;28;20491;-74
2022/05/15 11:18:23;;;;;;;12.82;3.80;;;23.10;56.80;;;;;;5008592;28;20092;-74
2022/05/15 11:20:53;;;;;;;11.18;3.55;;;23.10;53.10;;;;;;5018605;28;20193;-74
2022/05/15 11:23:37;;;;;;;12.93;3.75;;;22.90;54.50;;;;;;5020221;28;20108;-75
2022/05/15 11:26:28;;;;;;;12.43;3.60;;;22.90;56.00;;;;;;5023440;28;20127;-74
2022/05/15 11:28:58;;;;;;;15.35;3.75;;;23.20;54.00;;;;;;5021893;28;20061;-74
2022/05/15 11:31:35;;;;;;;15.13;3.45;;;23.20;53.70;;;;;;5023678;28;20124;-75
2022/05/15 11:34:04;;;;;;;12.73;3.25;;;23.30;53.70;;;;;;5005715;28;20037;-75
2022/05/15 11:36:35;;;;;;;12.88;3.50;;;23.40;53.00;;;;;;5022901;28;20045;-75
2022/05/15 11:39:17;;;;;;;12.02;3.63;;;23.60;51.90;;;;;;5007496;28;20057;-75
2022/05/15 11:41:42;;;;;;;10.05;3.85;;;23.50;52.00;;;;;;5022936;28;20119;-76
2022/05/15 11:44:14;;;;;;;10.25;2.90;;;23.20;50.30;;;;;;5006636;28;20045;-75
2022/05/15 11:46:46;;;;;;;10.13;2.95;;;23.00;51.30;;;;;;5007758;28;20044;-75
2022/05/15 11:49:14;;;;;;;13.23;3.40;;;23.00;52.30;;;;;;5021830;28;20519;-75
2022/05/15 11:51:40;;;;;;;9.40;3.38;;;23.00;52.50;;;;;;5018724;28;20052;-75
2022/05/15 11:54:27;;;;;;;10.60;3.10;;;23.10;52.60;;;;;;5007144;28;20054;-75
2022/05/15 11:56:54;;;;;;;11.70;3.58;;;23.20;51.70;;;;;;5006907;28;20566;-75
2022/05/15 11:59:24;;;;;;;12.25;3.53;;;23.30;51.20;;;;;;5023266;28;20037;-75
2022/05/15 12:01:55;;;;;;;11.60;2.85;;;23.30;50.90;;;;;;5020227;28;20518;-75
2022/05/15 12:04:58;;;;;;;11.30;3.20;;;23.30;50.60;;;;;;5007046;28;20045;-76
2022/05/15 12:07:46;;;;;;;13.30;3.60;;;23.30;51.00;;;;;;5005063;28;20041;-75
2022/05/15 12:10:21;;;;;;;13.35;3.40;;;23.50;50.90;;;;;;5022842;28;20053;-75
2022/05/15 12:13:00;;;;;;;12.45;3.60;;;23.60;50.40;;;;;;5021877;28;20102;-75
2022/05/15 12:15:35;;;;;;;10.88;3.20;;;23.70;50.50;;;;;;5023409;28;20060;-75
2022/05/15 12:18:16;;;;;;;12.80;3.25;;;23.80;51.10;;;;;;5023165;28;20049;-75
2022/05/15 12:20:50;;;;;;;13.57;3.42;;;23.90;49.30;;;;;;5007161;28;20056;-76
2022/05/15 12:23:19;;;;;;;18.15;3.78;;;23.80;50.20;;;;;;5021074;28;20049;-75
2022/05/15 12:25:53;;;;;;;13.45;3.63;;;23.90;50.00;;;;;;5003304;28;20060;-75
2022/05/15 12:28:52;;;;;;;10.65;3.08;;;24.00;49.90;;;;;;5019323;28;20037;-76
2022/05/15 12:31:36;;;;;;;12.10;3.22;;;24.00;49.60;;;;;;5020158;28;20521;-75
2022/05/15 12:34:19;;;;;;;10.27;3.30;;;24.10;49.00;;;;;;5022481;28;20042;-75
2022/05/15 12:36:55;;;;;;;12.80;3.60;;;24.00;48.30;;;;;;5019235;28;20052;-74
2022/05/15 12:39:25;;;;;;;13.35;3.45;;;24.10;48.10;;;;;;5022931;28;20855;-75
2022/05/15 12:41:52;;;;;;;13.55;3.20;;;24.00;48.40;;;;;;5023102;28;20072;-76
2022/05/15 12:44:30;;;;;;;11.00;3.45;;;24.00;48.90;;;;;;5018501;28;20149;-76
2022/05/15 12:46:58;;;;;;;12.45;3.17;;;24.10;48.90;;;;;;5020230;28;20106;-76
2022/05/15 12:49:34;;;;;;;12.65;3.30;;;24.10;48.00;;;;;;5005858;28;20071;-75
2022/05/15 12:52:18;;;;;;;18.33;3.25;;;24.00;48.60;;;;;;5004769;28;20045;-76
2022/05/15 12:54:53;;;;;;;10.43;3.15;;;24.10;47.90;;;;;;5011250;28;20046;-75
2022/05/15 12:57:19;;;;;;;19.92;3.22;;;24.10;47.80;;;;;;5010747;28;20046;-74
2022/05/15 12:59:48;;;;;;;12.02;3.50;;;24.10;46.60;;;;;;5014698;28;20488;-74
2022/05/15 13:02:25;;;;;;;40.57;4.40;;;24.00;46.10;;;;;;5009727;28;20180;-76
2022/05/15 13:04:54;;;;;;;40.30;4.78;;;24.00;46.90;;;;;;5018304;28;20292;-75
2022/05/15 13:07:28;;;;;;;10.73;3.30;;;24.00;47.50;;;;;;5004271;28;20049;-77
2022/05/15 13:10:13;;;;;;;12.55;2.92;;;24.00;48.20;;;;;;5014265;28;20100;-75
2022/05/15 13:13:01;;;;;;;12.88;3.50;;;24.30;47.10;;;;;;5028355;28;20611;-76
2022/05/15 13:15:29;;;;;;;13.10;2.85;;;24.50;47.20;;;;;;5031060;28;20050;-76
2022/05/15 13:17:58;;;;;;;12.77;3.47;;;24.70;47.40;;;;;;5023088;28;20056;-77
2022/05/15 13:20:26;;;;;;;10.82;3.25;;;24.90;46.10;;;;;;5032510;28;20458;-73